Time;durP1;ratioP1;P1;durP2;ratioP2;P2;SDS_P1;SDS_P2;PMS_P1;PMS_P2;Temp;Humidity;BMP_temperature;BMP_pressure;BME280_temperature;BME280_humidity;BME280_pressure;Samples;Min_cycle;Max_cycle;Signal;HPM_P1;HPM_P2
2023/10/08 00:00:49;;;;;;;2.30;1.10;;;;;;;10.68;96.04;100212.90;130313;1274;115166;-63
2023/10/08 00:04:04;;;;;;;2.80;1.20;;;;;;;10.69;96.05;100219.14;130313;1257;114718;-65
2023/10/08 00:07:09;;;;;;;5.30;1.20;;;;;;;10.68;96.05;100230.41;130378;1251;114753;-61
2023/10/08 00:10:13;;;;;;;3.00;0.90;;;;;;;10.68;96.13;100226.48;130408;1273;114713;-63
2023/10/08 00:13:18;;;;;;;3.10;1.40;;;;;;;10.67;96.21;100222.46;130364;1252;128640;-62
2023/10/08 00:16:21;;;;;;;2.40;0.90;;;;;;;10.66;96.07;100213.75;130369;1257;114701;-60
2023/10/08 00:19:27;;;;;;;1.20;0.90;;;;;;;10.63;96.10;100213.70;130296;1257;115063;-62
2023/10/08 00:22:37;;;;;;;1.30;0.90;;;;;;;10.58;95.85;100220.92;130188;1273;115301;-61
2023/10/08 00:25:43;;;;;;;3.40;1.20;;;;;;;10.57;96.03;100217.03;130305;1264;114778;-60
2023/10/08 00:28:51;;;;;;;1.50;1.00;;;;;;;10.54;95.84;100220.40;130299;1266;128951;-61
2023/10/08 00:32:02;;;;;;;2.20;1.10;;;;;;;10.52;96.09;100232.28;130090;1251;116253;-63
2023/10/08 00:35:05;;;;;;;2.00;1.10;;;;;;;10.49;96.12;100246.55;130258;1257;114706;-62
2023/10/08 00:38:14;;;;;;;2.90;1.10;;;;;;;10.48;96.27;100240.69;130416;1274;114805;-61
2023/10/08 00:41:27;;;;;;;3.00;1.20;;;;;;;10.48;96.03;100236.77;130394;1264;114744;-61
2023/10/08 00:44:30;;;;;;;2.00;0.90;;;;;;;10.48;96.38;100239.81;130256;1274;128706;-61
2023/10/08 00:47:38;;;;;;;1.80;1.00;;;;;;;10.48;96.11;100225.52;130299;1264;114712;-61
2023/10/08 00:50:43;;;;;;;2.60;1.00;;;;;;;10.47;96.24;100226.13;130190;1251;114773;-61
2023/10/08 00:53:46;;;;;;;1.70;0.90;;;;;;;10.48;96.52;100225.54;129880;1262;114782;-60
2023/10/08 00:57:09;;;;;;;;;;;;;;;;;;;;;
2023/10/08 01:00:21;;;;;;;1.40;1.00;;;;;;;10.49;96.35;100227.64;130018;1275;128787;-61
2023/10/08 01:03:26;;;;;;;2.00;1.30;;;;;;;10.48;96.59;100231.42;130084;1273;115150;-60
2023/10/08 01:06:33;;;;;;;4.20;1.00;;;;;;;10.47;96.50;100233.82;130002;1275;114780;-62
2023/10/08 01:09:37;;;;;;;1.80;1.00;;;;;;;10.45;96.48;100227.30;130086;1275;114780;-60
2023/10/08 01:13:01;;;;;;;1.60;1.10;;;;;;;10.43;96.66;100224.33;130143;1257;114695;-62
2023/10/08 01:16:09;;;;;;;2.90;1.30;;;;;;;10.41;96.56;100220.55;129747;1260;128734;-62
2023/10/08 01:19:14;;;;;;;2.30;1.20;;;;;;;10.41;96.75;100216.41;130146;1275;115272;-60
2023/10/08 01:22:21;;;;;;;2.20;1.10;;;;;;;10.43;96.80;100205.63;130154;1275;114843;-61
2023/10/08 01:25:24;;;;;;;2.10;1.20;;;;;;;10.43;96.62;100210.77;130047;1264;115144;-62
2023/10/08 01:28:28;;;;;;;3.10;1.40;;;;;;;10.44;96.90;100223.26;130070;1257;114684;-62
2023/10/08 01:31:34;;;;;;;1.50;1.40;;;;;;;10.42;96.93;100229.02;129940;1275;129350;-61
2023/10/08 01:34:39;;;;;;;3.20;1.30;;;;;;;10.40;96.68;100232.70;130132;1269;115236;-62
2023/10/08 01:37:42;;;;;;;3.20;1.60;;;;;;;10.33;96.32;100238.00;130062;1266;116401;-63
2023/10/08 01:40:50;;;;;;;2.50;1.70;;;;;;;10.29;96.70;100243.91;129986;1275;114978;-62
2023/10/08 01:43:59;;;;;;;4.40;1.60;;;;;;;10.24;96.51;100238.48;130128;1275;114708;-61
2023/10/08 01:47:04;;;;;;;5.00;1.70;;;;;;;10.22;96.54;100243.95;130131;1275;128696;-61
2023/10/08 01:50:21;;;;;;;5.40;1.40;;;;;;;10.20;96.56;100244.20;130315;1258;115230;-61
2023/10/08 01:53:23;;;;;;;;;;;;;;;10.18;96.78;100251.44;129944;1267;114860;-61
2023/10/08 01:56:33;;;;;;;3.30;1.50;;;;;;;10.16;97.06;100261.73;129972;1270;114645;-61
2023/10/08 01:59:39;;;;;;;2.20;1.40;;;;;;;10.13;97.12;100271.67;130019;1276;114682;-61
2023/10/08 02:02:43;;;;;;;3.90;1.20;;;;;;;10.11;96.86;100278.89;130012;1276;128698;-61
2023/10/08 02:05:46;;;;;;;3.60;1.40;;;;;;;10.09;97.12;100273.98;130092;1276;114736;-62
2023/10/08 02:08:58;;;;;;;3.40;1.30;;;;;;;10.08;96.94;100271.18;130133;1262;114783;-64
2023/10/08 02:12:01;;;;;;;6.20;1.00;;;;;;;10.08;96.96;100281.56;130103;1260;115551;-64
2023/10/08 02:15:06;;;;;;;2.80;1.10;;;;;;;10.07;97.08;100291.24;130117;1276;114796;-62
2023/10/08 02:18:09;;;;;;;4.80;1.20;;;;;;;10.05;97.19;100285.42;130005;1254;128736;-62
2023/10/08 02:21:11;;;;;;;4.40;1.90;;;;;;;10.07;97.32;100276.59;130000;1270;114932;-63
2023/10/08 02:24:14;;;;;;;8.70;1.70;;;;;;;10.07;97.18;100291.23;130036;1276;114751;-62
2023/10/08 02:27:19;;;;;;;6.60;1.90;;;;;;;10.05;97.26;100322.91;130015;1258;115105;-63
2023/10/08 02:30:22;;;;;;;7.70;1.70;;;;;;;10.04;97.05;100340.08;129964;1258;114706;-63
2023/10/08 02:33:26;;;;;;;5.10;1.60;;;;;;;10.03;97.21;100339.91;129926;1257;114789;-62
2023/10/08 02:36:32;;;;;;;6.20;1.60;;;;;;;10.02;97.10;100353.17;129632;1276;128521;-62
2023/10/08 02:39:34;;;;;;;8.90;1.40;;;;;;;10.02;97.32;100372.98;129949;1268;114631;-63
2023/10/08 02:42:37;;;;;;;5.60;1.60;;;;;;;10.04;97.68;100371.27;129916;1258;114725;-63
2023/10/08 02:45:40;;;;;;;8.20;2.20;;;;;;;10.05;97.43;100373.40;129950;1256;114789;-63
2023/10/08 02:48:43;;;;;;;7.90;1.40;;;;;;;10.03;97.51;100372.73;130055;1254;114783;-62
2023/10/08 02:51:47;;;;;;;3.70;1.90;;;;;;;10.03;97.69;100362.40;130106;1257;114779;-62
2023/10/08 02:54:52;;;;;;;6.80;1.90;;;;;;;10.03;97.67;100359.73;130283;1252;115087;-64
2023/10/08 02:57:58;;;;;;;1.70;0.90;;;;;;;10.06;97.83;100364.63;130396;1254;114651;-63
2023/10/08 03:01:00;;;;;;;5.00;1.30;;;;;;;10.07;98.26;100379.91;130107;1251;114742;-63
2023/10/08 03:04:14;;;;;;;5.70;1.30;;;;;;;10.08;97.85;100376.14;130421;1251;114972;-62
2023/10/08 03:07:33;;;;;;;3.30;1.10;;;;;;;10.07;97.84;100380.25;130431;1264;127640;-63
2023/10/08 03:10:35;;;;;;;3.40;1.40;;;;;;;10.09;98.04;100383.20;130103;1261;116133;-63
2023/10/08 03:13:38;;;;;;;5.20;1.40;;;;;;;10.09;98.05;100382.14;130406;1266;114716;-62
2023/10/08 03:16:41;;;;;;;3.70;1.20;;;;;;;10.07;97.87;100380.26;130348;1274;114742;-64
2023/10/08 03:19:44;;;;;;;2.10;1.20;;;;;;;10.08;98.08;100379.34;130332;1265;115157;-61
2023/10/08 03:22:47;;;;;;;2.40;1.20;;;;;;;10.09;98.29;100386.05;130473;1264;114725;-62
2023/10/08 03:26:10;;;;;;;4.70;1.60;;;;;;;10.11;98.35;100395.95;130278;1267;114723;-64
2023/10/08 03:29:15;;;;;;;4.50;1.60;;;;;;;10.11;97.95;100398.96;130346;1274;114763;-63
2023/10/08 03:32:18;;;;;;;4.90;1.70;;;;;;;10.12;98.17;100409.66;130361;1254;114685;-62
2023/10/08 03:35:27;;;;;;;4.80;1.40;;;;;;;10.13;98.64;100429.06;130115;1274;114743;-62
2023/10/08 03:38:50;;;;;;;6.70;1.40;;;;;;;10.14;98.34;100422.92;130009;1271;127760;-63
2023/10/08 03:42:05;;;;;;;3.20;1.20;;;;;;;10.15;98.51;100427.02;130110;1274;115249;-62
2023/10/08 03:45:12;;;;;;;3.50;1.30;;;;;;;10.16;98.61;100441.25;130176;1260;114875;-63
2023/10/08 03:48:15;;;;;;;3.00;1.50;;;;;;;10.16;98.81;100437.99;130327;1254;115144;-64
2023/10/08 03:51:21;;;;;;;4.90;1.30;;;;;;;10.18;98.79;100454.89;130188;1257;115573;-62
2023/10/08 03:54:33;;;;;;;4.10;1.40;;;;;;;10.17;98.49;100459.21;130128;1257;128812;-64
2023/10/08 03:57:42;;;;;;;4.00;1.30;;;;;;;10.16;98.71;100451.38;130007;1264;115234;-61
2023/10/08 04:00:45;;;;;;;8.20;2.00;;;;;;;10.16;98.67;100447.83;129845;1260;114903;-63
2023/10/08 04:06:55;;;;;;;2.80;1.50;;;;;;;10.16;98.75;100454.64;127555;1257;3494683;-63
2023/10/08 04:13:16;;;;;;;;;;;;;;;10.16;98.84;100475.16;129756;1276;128980;-64
2023/10/08 04:16:19;;;;;;;;;;;;;;;10.14;98.78;100470.60;130110;1276;114748;-62
2023/10/08 04:19:26;;;;;;;4.10;1.50;;;;;;;10.12;98.91;100470.14;130136;1276;114789;-62
2023/10/08 04:22:31;;;;;;;7.90;1.50;;;;;;;10.11;98.68;100458.23;130126;1275;115103;-62
2023/10/08 04:25:34;;;;;;;7.60;2.30;;;;;;;10.10;98.63;100444.52;129867;1260;115378;-61
2023/10/08 04:28:37;;;;;;;6.40;2.00;;;;;;;10.11;98.91;100421.83;129967;1257;114785;-61
2023/10/08 04:31:43;;;;;;;3.70;1.70;;;;;;;10.09;98.69;100438.88;129996;1257;114823;-61
2023/10/08 04:34:46;;;;;;;2.60;1.30;;;;;;;10.09;98.59;100452.11;130029;1275;114801;-62
2023/10/08 04:37:53;;;;;;;3.70;1.40;;;;;;;10.08;98.83;100463.23;130090;1256;115239;-62
2023/10/08 04:41:01;;;;;;;5.70;1.80;;;;;;;10.07;98.87;100478.04;129716;1258;114760;-62
2023/10/08 04:44:11;;;;;;;7.00;1.40;;;;;;;10.08;98.91;100480.85;129678;1275;129739;-61
2023/10/08 04:47:31;;;;;;;8.30;1.80;;;;;;;10.10;99.04;100477.77;130095;1258;115275;-62
2023/10/08 04:50:36;;;;;;;6.40;2.10;;;;;;;10.11;99.01;100483.05;129869;1275;114804;-62
2023/10/08 04:53:44;;;;;;;4.10;1.80;;;;;;;10.12;99.15;100496.06;130336;1251;114721;-63
2023/10/08 04:56:49;;;;;;;7.00;1.90;;;;;;;10.12;99.14;100504.94;130307;1273;114724;-62
2023/10/08 04:59:57;;;;;;;5.30;1.70;;;;;;;10.13;98.96;100517.75;130326;1256;127745;-64
2023/10/08 05:03:10;;;;;;;5.70;2.20;;;;;;;10.14;99.32;100503.97;130291;1273;115231;-60
2023/10/08 05:06:26;;;;;;;7.40;2.10;;;;;;;10.15;99.32;100512.69;130342;1253;114788;-61
2023/10/08 05:09:45;;;;;;;7.60;2.50;;;;;;;10.15;99.12;100532.65;130281;1252;114801;-62
2023/10/08 05:13:14;;;;;;;6.10;2.20;;;;;;;10.16;99.13;100541.55;130341;1267;114795;-61
2023/10/08 05:16:35;;;;;;;;;;;;;;;10.15;99.26;100554.98;130335;1273;128442;-62
2023/10/08 05:22:55;;;;;;;8.80;3.60;;;;;;;10.16;99.31;100557.41;130108;1253;115156;-61
2023/10/08 05:32:38;;;;;;;14.10;3.80;;;;;;;10.18;99.33;100601.06;130066;1275;127671;-61
2023/10/08 05:42:16;;;;;;;13.90;4.30;;;;;;;10.25;99.68;100614.35;130242;1253;114712;-62
2023/10/08 05:45:29;;;;;;;10.90;6.10;;;;;;;10.28;99.40;100624.89;130114;1275;114894;-61
2023/10/08 05:48:38;;;;;;;15.90;7.20;;;;;;;10.30;99.58;100642.16;130311;1256;128637;-63
2023/10/08 05:52:26;;;;;;;15.00;9.70;;;;;;;10.30;99.63;100651.23;130198;1274;115137;-65
2023/10/08 05:55:18;;;;;;;20.70;6.80;;;;;;;10.29;99.29;100653.62;129936;1251;114877;-65
2023/10/08 06:01:39;;;;;;;11.60;6.30;;;;;;;10.30;99.15;100661.05;130190;1257;114790;-65
2023/10/08 06:08:48;;;;;;;13.10;7.30;;;;;;;10.34;99.39;100678.94;130103;1251;115159;-61
2023/10/08 06:12:09;;;;;;;14.90;7.30;;;;;;;10.37;99.09;100689.36;130269;1257;114753;-61
2023/10/08 06:15:37;;;;;;;;;;;;;;;;;;;;;
2023/10/08 06:18:43;;;;;;;14.30;8.30;;;;;;;10.43;98.84;100702.34;130065;1260;116038;-64
2023/10/08 06:21:46;;;;;;;18.70;8.40;;;;;;;10.51;98.97;100708.95;130202;1274;128993;-64
2023/10/08 06:24:48;;;;;;;14.50;7.40;;;;;;;10.61;98.96;100713.01;130257;1252;115679;-65
2023/10/08 06:28:03;;;;;;;13.50;6.60;;;;;;;10.71;98.72;100725.44;130233;1254;114709;-64
2023/10/08 06:31:24;;;;;;;12.40;5.20;;;;;;;10.80;98.81;100729.33;130335;1257;115192;-64
2023/10/08 06:34:33;;;;;;;14.30;6.90;;;;;;;10.82;98.33;100743.19;130001;1251;115233;-66
2023/10/08 06:38:36;;;;;;;10.80;6.80;;;;;;;10.79;97.76;100746.17;130417;1254;128734;-63
2023/10/08 06:41:33;;;;;;;12.70;6.30;;;;;;;10.82;98.08;100755.71;130262;1270;115131;-64
2023/10/08 06:44:37;;;;;;;9.70;6.20;;;;;;;10.89;97.94;100764.88;130331;1274;114810;-64
2023/10/08 06:47:40;;;;;;;11.70;6.90;;;;;;;11.03;97.98;100768.74;130547;1250;115004;-63
2023/10/08 06:50:43;;;;;;;12.30;7.00;;;;;;;11.16;97.63;100776.58;130412;1254;114787;-63
2023/10/08 06:53:48;;;;;;;13.50;6.70;;;;;;;11.27;97.35;100782.88;130314;1254;114760;-63
2023/10/08 06:56:55;;;;;;;12.30;6.00;;;;;;;11.40;97.08;100784.42;130008;1259;115326;-61
2023/10/08 06:59:58;;;;;;;14.20;5.80;;;;;;;11.56;97.20;100799.13;130364;1254;114773;-62
2023/10/08 07:03:01;;;;;;;10.40;5.60;;;;;;;11.72;96.86;100806.60;130403;1251;114719;-62
2023/10/08 07:06:16;;;;;;;6.60;4.20;;;;;;;11.81;96.35;100809.03;130391;1251;114729;-63
2023/10/08 07:09:29;;;;;;;7.10;4.60;;;;;;;11.72;94.62;100821.25;130360;1273;128141;-64
2023/10/08 07:12:35;;;;;;;11.70;3.70;;;;;;;11.54;93.88;100829.23;130291;1257;115243;-63
2023/10/08 07:15:40;;;;;;;9.20;3.90;;;;;;;11.38;93.69;100831.72;130289;1254;114722;-63
2023/10/08 07:18:55;;;;;;;11.20;3.70;;;;;;;11.47;94.32;100840.48;130470;1251;114975;-64
2023/10/08 07:22:03;;;;;;;9.60;4.20;;;;;;;11.58;94.59;100849.84;130030;1251;114924;-67
2023/10/08 07:25:09;;;;;;;7.90;3.90;;;;;;;11.74;94.04;100859.83;130118;1273;128863;-77
2023/10/08 07:28:17;;;;;;;6.30;3.60;;;;;;;11.95;93.67;100855.33;130392;1254;115252;-75
2023/10/08 07:31:28;;;;;;;8.70;2.80;;;;;;;12.18;92.94;100856.05;130366;1251;114721;-74
2023/10/08 07:34:32;;;;;;;4.30;2.10;;;;;;;12.29;90.34;100857.52;130370;1274;114820;-70
2023/10/08 07:37:54;;;;;;;;;;;;;;;;;;;;;
2023/10/08 07:40:57;;;;;;;4.20;2.20;;;;;;;12.49;88.64;100872.52;130213;1271;128440;-65
2023/10/08 07:44:00;;;;;;;5.90;2.40;;;;;;;12.60;88.48;100881.45;130273;1257;115185;-59
2023/10/08 07:47:21;;;;;;;3.70;2.20;;;;;;;12.79;88.00;100881.63;130309;1257;114655;-60
2023/10/08 07:50:24;;;;;;;4.30;2.10;;;;;;;12.96;87.15;100885.96;130326;1254;116316;-60
2023/10/08 07:53:41;;;;;;;5.00;2.00;;;;;;;13.15;86.62;100892.93;130272;1257;114773;-65
2023/10/08 07:56:44;;;;;;;4.80;2.00;;;;;;;13.32;85.88;100887.02;130261;1267;128988;-64
2023/10/08 07:59:46;;;;;;;5.20;2.00;;;;;;;13.47;86.12;100891.30;130299;1254;114718;-73
2023/10/08 08:02:52;;;;;;;5.20;2.20;;;;;;;13.62;86.10;100889.95;130535;1251;115194;-63
2023/10/08 08:05:58;;;;;;;6.10;2.50;;;;;;;13.71;84.64;100890.96;130329;1257;114784;-65
2023/10/08 08:09:03;;;;;;;7.70;2.10;;;;;;;13.75;84.47;100892.55;130179;1259;114798;-60
2023/10/08 08:12:14;;;;;;;4.10;2.50;;;;;;;13.70;84.14;100897.11;130176;1272;128968;-60
2023/10/08 08:15:22;;;;;;;4.50;1.90;;;;;;;13.67;83.09;100911.83;130384;1266;114782;-61
2023/10/08 08:18:30;;;;;;;3.60;1.70;;;;;;;13.62;83.25;100915.98;129957;1252;114837;-60
2023/10/08 08:21:35;;;;;;;2.00;1.20;;;;;;;13.60;82.80;100917.03;130319;1254;114806;-61
2023/10/08 08:24:41;;;;;;;4.70;1.10;;;;;;;13.51;81.34;100925.89;130215;1264;115115;-59
2023/10/08 08:27:55;;;;;;;2.80;1.00;;;;;;;13.37;79.51;100932.14;129887;1275;127898;-60
2023/10/08 08:31:13;;;;;;;4.30;1.30;;;;;;;13.23;78.61;100938.23;130240;1274;115171;-60
2023/10/08 08:34:19;;;;;;;4.30;1.10;;;;;;;13.08;77.55;100944.19;130370;1256;114705;-62
2023/10/08 08:37:24;;;;;;;3.90;1.40;;;;;;;12.93;76.25;100948.88;129765;1261;114775;-64
2023/10/08 08:40:37;;;;;;;6.20;3.90;;;;;;;12.82;77.83;100952.10;130226;1256;114768;-63
2023/10/08 08:44:00;;;;;;;1.30;1.10;;;;;;;12.78;75.97;100954.77;129991;1275;128874;-62
2023/10/08 08:47:40;;;;;;;3.70;1.00;;;;;;;12.63;75.35;100956.03;129958;1260;114951;-60
2023/10/08 08:50:48;;;;;;;1.40;0.80;;;;;;;12.61;75.91;100962.94;130314;1256;114731;-61
2023/10/08 08:53:52;;;;;;;3.90;1.20;;;;;;;12.56;73.99;100964.80;129988;1260;114811;-60
2023/10/08 08:57:04;;;;;;;3.30;1.40;;;;;;;12.53;74.10;100969.41;130403;1254;114754;-60
2023/10/08 09:00:10;;;;;;;2.40;1.20;;;;;;;12.56;74.76;100971.96;130329;1273;128791;-60
2023/10/08 09:03:13;;;;;;;2.10;1.00;;;;;;;12.56;72.69;100973.02;130204;1273;115039;-60
2023/10/08 09:06:15;;;;;;;5.10;2.00;;;;;;;12.55;72.93;100969.70;130458;1254;114821;-60
2023/10/08 09:09:25;;;;;;;1.70;1.10;;;;;;;12.54;72.82;100972.23;130374;1257;114774;-61
2023/10/08 09:12:28;;;;;;;4.00;1.00;;;;;;;12.50;67.82;100975.82;130193;1257;114751;-64
2023/10/08 09:15:34;;;;;;;3.60;1.10;;;;;;;12.43;69.55;100974.33;130303;1269;115109;-62
2023/10/08 09:18:36;;;;;;;2.10;0.90;;;;;;;12.44;70.20;100977.71;130278;1273;115387;-62
2023/10/08 09:21:39;;;;;;;3.00;1.40;;;;;;;12.48;69.72;100983.64;130444;1254;114740;-62
2023/10/08 09:24:44;;;;;;;1.50;0.80;;;;;;;12.50;69.41;100991.58;130321;1254;114693;-63
2023/10/08 09:27:55;;;;;;;3.80;1.10;;;;;;;12.54;68.74;100994.83;130342;1273;115169;-67
2023/10/08 09:30:59;;;;;;;4.70;1.40;;;;;;;12.57;67.60;101002.58;130231;1273;129680;-66
2023/10/08 09:34:03;;;;;;;3.10;0.80;;;;;;;12.57;67.56;101009.52;130200;1259;115229;-59
2023/10/08 09:37:07;;;;;;;1.30;1.00;;;;;;;12.58;68.01;101022.01;130461;1251;114682;-64
2023/10/08 09:40:11;;;;;;;2.60;1.00;;;;;;;12.62;68.09;101028.48;130326;1257;114729;-62
2023/10/08 09:43:16;;;;;;;1.40;0.70;;;;;;;12.62;66.59;101036.19;130155;1260;114804;-60
2023/10/08 09:46:19;;;;;;;3.10;1.00;;;;;;;12.60;66.20;101042.52;130372;1254;127562;-65
2023/10/08 09:49:44;;;;;;;3.50;2.00;;;;;;;12.58;65.42;101047.14;130391;1270;115265;-69
2023/10/08 09:53:19;;;;;;;1.80;1.00;;;;;;;12.54;65.36;101051.98;130406;1273;114730;-70
2023/10/08 09:56:23;;;;;;;1.80;1.00;;;;;;;12.56;66.55;101052.42;130163;1258;114738;-67
2023/10/08 09:59:27;;;;;;;1.30;0.90;;;;;;;12.59;65.57;101058.38;130077;1257;114796;-63
2023/10/08 10:02:39;;;;;;;4.00;2.60;;;;;;;12.58;64.96;101067.19;130148;1257;127585;-59
2023/10/08 10:05:44;;;;;;;1.90;1.10;;;;;;;12.59;65.44;101066.42;130097;1275;115212;-64
2023/10/08 10:08:57;;;;;;;1.30;0.70;;;;;;;12.59;64.08;101065.92;130211;1253;114750;-61
2023/10/08 10:11:59;;;;;;;1.50;0.80;;;;;;;12.56;63.86;101075.02;130089;1256;114888;-61
2023/10/08 10:15:02;;;;;;;3.90;1.20;;;;;;;12.51;63.28;101073.23;130097;1269;114641;-67
2023/10/08 10:18:32;;;;;;;1.10;0.90;;;;;;;12.49;63.37;101073.15;130147;1267;114741;-69
2023/10/08 10:21:43;;;;;;;3.20;1.00;;;;;;;12.48;62.97;101071.77;130079;1275;115213;-69
2023/10/08 10:24:49;;;;;;;1.80;0.80;;;;;;;12.45;62.48;101069.39;130135;1254;114699;-70
2023/10/08 10:27:53;;;;;;;3.80;0.90;;;;;;;12.44;61.78;101070.48;130059;1257;115144;-79
2023/10/08 10:31:00;;;;;;;3.20;1.80;;;;;;;12.39;60.76;101074.69;129938;1274;115087;-61
2023/10/08 10:34:10;;;;;;;4.20;1.80;;;;;;;12.38;62.03;101071.66;130193;1268;128814;-69
2023/10/08 10:37:24;;;;;;;1.60;0.90;;;;;;;12.40;62.18;101081.60;130289;1274;115234;-69
2023/10/08 10:40:39;;;;;;;2.80;1.00;;;;;;;12.41;61.36;101080.52;130297;1251;114805;-70
2023/10/08 10:43:52;;;;;;;1.80;0.90;;;;;;;12.40;60.65;101087.71;130396;1256;114666;-66
2023/10/08 10:47:42;;;;;;;1.50;1.00;;;;;;;12.40;60.88;101084.14;130422;1257;114819;-71
2023/10/08 10:50:31;;;;;;;5.10;0.80;;;;;;;12.42;61.03;101081.70;130301;1273;128956;-61
2023/10/08 10:53:44;;;;;;;1.10;0.60;;;;;;;12.42;60.22;101085.46;130330;1270;115243;-65
2023/10/08 10:57:17;;;;;;;1.80;0.80;;;;;;;12.43;59.59;101087.38;130254;1251;114847;-66
2023/10/08 11:03:37;;;;;;;1.40;0.80;;;;;;;12.45;60.06;101087.11;130434;1273;114740;-63
2023/10/08 11:06:44;;;;;;;2.10;0.60;;;;;;;12.47;60.20;101091.71;129867;1273;128614;-64
2023/10/08 11:09:47;;;;;;;1.60;0.70;;;;;;;12.52;60.00;101095.44;130667;1254;115199;-67
2023/10/08 11:13:00;;;;;;;1.70;0.60;;;;;;;12.53;59.70;101090.54;130681;1251;114768;-66
2023/10/08 11:16:05;;;;;;;1.30;0.90;;;;;;;12.57;59.57;101091.27;130409;1257;114767;-67
2023/10/08 11:19:08;;;;;;;5.60;1.50;;;;;;;12.63;59.45;101096.38;130493;1257;114808;-67
2023/10/08 11:22:23;;;;;;;2.20;0.70;;;;;;;12.67;59.24;101089.20;130705;1255;128497;-69
2023/10/08 11:25:30;;;;;;;2.10;0.70;;;;;;;12.70;57.89;101093.55;130681;1264;115369;-66
2023/10/08 11:28:49;;;;;;;1.30;0.80;;;;;;;12.73;58.47;101087.48;130555;1273;114853;-66
2023/10/08 11:31:59;;;;;;;0.90;0.60;;;;;;;12.78;58.20;101085.46;130612;1254;114744;-65
2023/10/08 11:35:18;;;;;;;1.10;0.70;;;;;;;12.82;58.34;101084.95;130412;1257;114779;-64
2023/10/08 11:38:22;;;;;;;1.60;0.70;;;;;;;12.84;58.09;101087.50;130500;1254;127917;-70
2023/10/08 11:41:27;;;;;;;1.30;0.60;;;;;;;12.88;56.90;101084.66;130461;1257;114744;-67
2023/10/08 11:44:39;;;;;;;1.40;0.80;;;;;;;12.90;57.33;101082.60;130555;1257;114877;-65
2023/10/08 11:47:44;;;;;;;1.10;0.80;;;;;;;12.91;56.62;101085.75;130231;1273;114795;-66
2023/10/08 11:50:52;;;;;;;2.10;0.90;;;;;;;12.89;54.80;101087.64;129972;1273;114815;-64
2023/10/08 11:53:56;;;;;;;1.40;0.50;;;;;;;12.84;54.99;101081.96;130151;1273;129233;-64
2023/10/08 11:57:09;;;;;;;1.10;0.90;;;;;;;12.80;55.56;101082.70;130183;1273;115199;-65
2023/10/08 12:00:21;;;;;;;1.60;0.70;;;;;;;12.78;55.28;101078.98;130175;1256;114940;-64
2023/10/08 12:03:28;;;;;;;1.80;1.00;;;;;;;12.76;55.75;101082.33;130569;1256;114810;-65
2023/10/08 12:06:30;;;;;;;1.60;0.80;;;;;;;12.76;55.44;101084.09;130166;1267;114706;-64
2023/10/08 12:09:38;;;;;;;0.90;0.70;;;;;;;12.77;55.54;101081.73;130187;1267;114743;-64
2023/10/08 12:12:42;;;;;;;1.20;0.90;;;;;;;12.74;55.13;101080.98;130067;1269;115157;-65
2023/10/08 12:15:51;;;;;;;1.20;0.80;;;;;;;12.72;55.62;101080.52;130246;1253;114804;-66
2023/10/08 12:18:58;;;;;;;0.80;0.80;;;;;;;12.73;55.79;101082.83;129856;1260;114768;-65
2023/10/08 12:22:08;;;;;;;3.30;1.50;;;;;;;12.77;55.71;101080.50;130089;1254;114869;-64
2023/10/08 12:25:13;;;;;;;2.30;1.50;;;;;;;12.83;55.98;101079.48;130116;1254;128860;-65
2023/10/08 12:28:36;;;;;;;4.00;1.80;;;;;;;12.89;55.89;101084.58;129848;1262;115441;-64
2023/10/08 12:31:48;;;;;;;1.10;0.90;;;;;;;12.92;55.88;101092.86;129867;1262;114802;-64
2023/10/08 12:34:53;;;;;;;3.90;1.30;;;;;;;12.97;55.89;101092.29;129548;1262;115501;-66
2023/10/08 12:37:56;;;;;;;1.80;1.10;;;;;;;13.06;55.92;101090.98;129792;1262;114871;-65
2023/10/08 12:41:11;;;;;;;2.00;1.00;;;;;;;13.15;56.44;101087.31;129791;1264;128199;-65
2023/10/08 12:44:19;;;;;;;1.70;0.70;;;;;;;13.28;56.47;101087.98;129667;1278;114769;-65
2023/10/08 12:47:30;;;;;;;1.20;0.90;;;;;;;13.37;55.35;101090.56;130502;1259;115182;-66
2023/10/08 12:50:42;;;;;;;1.80;1.40;;;;;;;13.43;55.32;101089.44;130569;1273;115076;-66
2023/10/08 12:54:06;;;;;;;3.90;1.60;;;;;;;13.42;54.80;101089.85;130647;1255;114695;-66
2023/10/08 12:57:16;;;;;;;2.40;1.20;;;;;;;13.38;54.68;101097.02;130625;1251;129136;-65
2023/10/08 13:00:25;;;;;;;2.20;1.50;;;;;;;13.35;55.02;101096.76;130489;1256;114821;-66
2023/10/08 13:03:55;;;;;;;1.00;0.90;;;;;;;13.35;54.57;101092.27;130412;1254;114750;-66
2023/10/08 13:07:02;;;;;;;3.20;0.60;;;;;;;13.29;53.21;101096.53;130587;1254;114801;-65
2023/10/08 13:10:11;;;;;;;5.10;1.10;;;;;;;13.23;53.46;101096.30;130514;1254;114777;-65
2023/10/08 13:13:22;;;;;;;2.00;0.70;;;;;;;13.18;53.07;101091.13;130582;1263;129248;-66
2023/10/08 13:16:37;;;;;;;2.00;1.00;;;;;;;13.17;53.54;101089.18;130407;1254;115269;-67
2023/10/08 13:19:40;;;;;;;3.10;1.40;;;;;;;13.21;53.79;101084.33;130590;1257;114830;-67
2023/10/08 13:22:46;;;;;;;3.80;2.60;;;;;;;13.27;53.88;101082.80;130289;1275;114765;-66
2023/10/08 13:26:04;;;;;;;7.90;2.50;;;;;;;13.36;54.01;101086.48;130420;1264;114749;-65
2023/10/08 13:29:13;;;;;;;2.80;1.10;;;;;;;13.43;53.55;101090.70;130379;1252;128762;-66
2023/10/08 13:32:25;;;;;;;4.00;1.20;;;;;;;13.45;53.32;101095.77;130517;1275;115233;-66
2023/10/08 13:35:27;;;;;;;1.20;0.90;;;;;;;13.46;53.01;101095.38;130576;1256;115455;-66
2023/10/08 13:38:33;;;;;;;4.30;0.90;;;;;;;13.45;52.06;101106.90;130509;1274;114804;-66
2023/10/08 13:41:41;;;;;;;2.10;1.10;;;;;;;13.46;52.59;101105.63;130489;1256;114724;-66
2023/10/08 13:44:49;;;;;;;2.80;1.40;;;;;;;13.48;52.62;101101.55;130460;1257;128165;-67
2023/10/08 13:48:01;;;;;;;1.20;0.80;;;;;;;13.49;52.07;101102.77;130679;1273;115310;-67
2023/10/08 13:51:05;;;;;;;1.70;0.90;;;;;;;13.47;51.41;101108.61;130582;1251;114767;-67
2023/10/08 13:54:09;;;;;;;1.10;0.80;;;;;;;13.48;51.93;101111.23;130454;1255;114727;-65
2023/10/08 13:57:26;;;;;;;1.70;1.10;;;;;;;13.49;51.72;101119.09;130242;1257;114788;-67
2023/10/08 14:00:36;;;;;;;3.60;1.00;;;;;;;13.49;51.53;101115.49;130423;1257;128554;-66
2023/10/08 14:03:41;;;;;;;1.60;0.70;;;;;;;13.47;51.01;101115.09;130654;1256;115208;-67
2023/10/08 14:06:54;;;;;;;2.00;0.90;;;;;;;13.43;51.15;101124.06;130686;1251;114723;-66
2023/10/08 14:09:59;;;;;;;2.50;0.70;;;;;;;13.33;50.76;101125.95;130318;1257;114796;-65
2023/10/08 14:13:06;;;;;;;2.20;1.00;;;;;;;13.23;51.43;101125.33;130343;1273;115185;-66
2023/10/08 14:16:15;;;;;;;2.90;0.90;;;;;;;13.14;51.67;101126.45;130586;1252;128759;-67
2023/10/08 14:19:28;;;;;;;2.90;1.20;;;;;;;13.07;52.03;101128.42;130492;1268;115180;-67
2023/10/08 14:22:40;;;;;;;1.10;0.70;;;;;;;12.96;52.06;101135.75;130540;1259;115087;-65
2023/10/08 14:25:55;;;;;;;2.10;1.20;;;;;;;12.84;52.37;101129.66;130481;1259;114788;-67
2023/10/08 14:29:24;;;;;;;4.00;1.20;;;;;;;12.78;52.40;101122.59;130137;1262;114818;-66
2023/10/08 14:32:24;;;;;;;1.50;1.20;;;;;;;12.75;52.70;101130.42;130357;1259;128679;-67
2023/10/08 14:45:57;;;;;;;0.60;0.50;;;;;;;12.76;52.50;101131.98;130538;1273;114701;-65
2023/10/08 14:49:10;;;;;;;2.40;1.60;;;;;;;12.68;52.04;101136.64;130680;1257;128779;-65
2023/10/08 14:52:15;;;;;;;1.30;0.90;;;;;;;12.60;51.42;101135.92;130593;1256;115148;-66
2023/10/08 14:55:27;;;;;;;1.50;0.90;;;;;;;12.56;51.90;101131.27;130522;1251;114773;-66
2023/10/08 14:58:33;;;;;;;1.30;0.90;;;;;;;12.56;51.80;101126.42;130605;1256;115360;-65
2023/10/08 15:01:35;;;;;;;0.60;0.60;;;;;;;12.56;51.60;101119.59;130393;1259;114658;-65
2023/10/08 15:04:43;;;;;;;1.50;0.90;;;;;;;12.56;51.49;101115.85;130560;1256;115590;-65
2023/10/08 15:07:52;;;;;;;1.80;0.80;;;;;;;12.58;52.15;101122.56;130666;1255;115223;-66